Time;durP1;ratioP1;P1;durP2;ratioP2;P2;SDS_P1;SDS_P2;PMS_P1;PMS_P2;Temp;Humidity;BMP_temperature;BMP_pressure;BME280_temperature;BME280_humidity;BME280_pressure;Samples;Min_cycle;Max_cycle;Signal;HPM_P1;HPM_P2
2023/08/18 05:47:12;;;;;;;28.90;20.97;;;23.80;92.00;;;;;;4955283;28;20476;-91
2023/08/18 05:53:03;;;;;;;27.00;19.90;;;23.70;92.20;;;;;;4958981;29;20434;-94
2023/08/18 05:55:30;;;;;;;27.60;18.30;;;23.70;92.30;;;;;;4958997;29;20969;-94
2023/08/18 05:57:59;;;;;;;24.63;20.27;;;23.70;92.30;;;;;;4958633;29;20960;-91
2023/08/18 06:00:27;;;;;;;21.17;17.20;;;23.70;92.20;;;;;;4958643;29;21035;-91
2023/08/18 06:02:56;;;;;;;20.80;16.90;;;23.80;92.10;;;;;;4959255;29;20449;-91
2023/08/18 06:05:25;;;;;;;20.20;16.40;;;23.80;92.00;;;;;;4958922;29;21042;-91
2023/08/18 06:07:53;;;;;;;18.77;14.50;;;23.90;91.90;;;;;;4959267;29;20498;-91
2023/08/18 06:10:19;;;;;;;19.53;14.40;;;24.00;91.90;;;;;;4959860;29;20799;-91
2023/08/18 06:12:47;;;;;;;17.70;13.27;;;24.00;91.70;;;;;;4958547;29;20449;-91
2023/08/18 06:15:14;;;;;;;17.60;15.17;;;24.00;91.60;;;;;;4958719;29;20458;-91
2023/08/18 06:17:41;;;;;;;16.63;13.57;;;24.00;91.50;;;;;;4959263;29;20922;-92
2023/08/18 06:20:10;;;;;;;14.70;13.13;;;24.10;91.50;;;;;;4958468;29;20455;-92
2023/08/18 06:22:37;;;;;;;16.20;14.03;;;24.10;91.50;;;;;;4958434;29;20453;-91
2023/08/18 06:25:05;;;;;;;17.33;13.20;;;24.10;91.40;;;;;;4958409;29;20484;-94
2023/08/18 06:27:32;;;;;;;15.13;13.00;;;24.10;91.40;;;;;;4958528;29;20460;-91
2023/08/18 06:29:59;;;;;;;16.83;13.33;;;24.10;91.30;;;;;;4958813;29;20455;-91
2023/08/18 06:32:26;;;;;;;14.60;13.10;;;24.20;91.40;;;;;;4958188;29;20462;-92
2023/08/18 06:34:52;;;;;;;14.73;13.20;;;24.20;91.30;;;;;;4958222;29;20551;-92
2023/08/18 06:37:21;;;;;;;14.37;12.80;;;24.20;91.30;;;;;;4958406;29;20557;-91
2023/08/18 06:39:48;;;;;;;14.63;13.10;;;24.20;91.30;;;;;;4958349;29;20453;-94
2023/08/18 06:42:15;;;;;;;12.73;11.43;;;24.20;91.70;;;;;;4958499;29;20809;-93
2023/08/18 06:44:42;;;;;;;15.90;14.17;;;24.20;91.20;;;;;;4957924;29;20541;-95
2023/08/18 06:47:08;;;;;;;12.27;11.07;;;24.20;91.20;;;;;;4957961;29;20477;-94
2023/08/18 06:49:35;;;;;;;13.50;12.10;;;24.20;91.20;;;;;;4958695;29;20872;-94
2023/08/18 06:52:02;;;;;;;13.53;12.13;;;24.20;91.20;;;;;;4957883;29;20532;-93
2023/08/18 06:54:31;;;;;;;13.47;12.07;;;24.20;91.20;;;;;;4958031;29;20499;-92
2023/08/18 06:56:57;;;;;;;12.20;10.90;;;24.20;91.20;;;;;;4957668;29;20560;-91
2023/08/18 06:59:24;;;;;;;13.70;12.30;;;24.20;91.10;;;;;;4958391;29;20800;-96
2023/08/18 07:01:53;;;;;;;14.67;12.97;;;24.20;91.10;;;;;;4956590;28;20453;-92
2023/08/18 07:04:20;;;;;;;12.77;11.33;;;24.20;91.10;;;;;;4957599;29;20461;-93
2023/08/18 07:06:46;;;;;;;13.60;11.17;;;24.20;91.10;;;;;;4957577;29;20449;-92
2023/08/18 07:09:13;;;;;;;13.40;12.00;;;24.30;91.10;;;;;;4958019;29;20540;-92
2023/08/18 07:11:42;;;;;;;13.03;10.70;;;24.30;91.20;;;;;;4957673;29;20545;-92
2023/08/18 07:14:08;;;;;;;12.20;11.10;;;24.30;91.60;;;;;;4957672;29;20841;-92
2023/08/18 07:16:35;;;;;;;12.10;10.90;;;24.20;91.70;;;;;;4957338;29;20540;-92
2023/08/18 07:19:02;;;;;;;10.53;9.53;;;24.10;91.90;;;;;;4957281;29;20815;-92
2023/08/18 07:21:29;;;;;;;12.93;10.67;;;24.10;91.90;;;;;;4958153;29;20498;-91
2023/08/18 07:23:56;;;;;;;10.80;9.70;;;24.10;92.00;;;;;;4959356;29;20862;-89
2023/08/18 07:26:23;;;;;;;11.33;10.23;;;24.10;91.90;;;;;;4957471;29;20493;-93
2023/08/18 07:32:12;;;;;;;10.10;9.07;;;24.10;91.70;;;;;;4957422;29;20412;-91
2023/08/18 07:38:02;;;;;;;9.50;8.73;;;24.20;91.60;;;;;;4957083;29;20991;-92
2023/08/18 07:40:29;;;;;;;9.80;8.90;;;24.20;91.60;;;;;;4957114;29;20531;-95
2023/08/18 07:46:18;;;;;;;11.27;9.30;;;24.20;91.40;;;;;;4973267;28;20418;-94
2023/08/18 07:48:47;;;;;;;10.20;8.90;;;24.20;91.40;;;;;;4959436;29;20448;-93
2023/08/18 07:51:14;;;;;;;9.00;8.13;;;24.20;91.40;;;;;;4962835;29;20473;-96
2023/08/18 07:59:04;;;;;;;8.63;7.83;;;24.20;91.30;;;;;;4958037;23;20477;-95
2023/08/18 08:04:15;;;;;;;9.03;8.13;;;24.30;91.30;;;;;;5054107;23;20476;-95
2023/08/18 08:06:42;;;;;;;8.97;8.00;;;24.30;91.30;;;;;;4949799;29;20561;-95
2023/08/18 08:09:09;;;;;;;7.50;6.80;;;24.30;91.30;;;;;;4948609;29;20537;-96
2023/08/18 08:11:36;;;;;;;8.70;7.77;;;24.30;91.20;;;;;;4938176;29;20848;-96
2023/08/18 08:14:08;;;;;;;8.70;7.90;;;24.30;91.20;;;;;;4941136;29;20461;-95
2023/08/18 08:16:35;;;;;;;8.63;7.90;;;24.30;91.20;;;;;;4940243;29;20454;-96
2023/08/18 08:19:03;;;;;;;6.57;5.97;;;24.30;91.20;;;;;;4940851;29;20505;-94
2023/08/18 08:21:33;;;;;;;8.37;7.60;;;24.30;91.10;;;;;;4938434;29;20510;-96
2023/08/18 08:26:28;;;;;;;9.10;8.30;;;24.30;91.10;;;;;;5151516;23;22097;-94
2023/08/18 08:29:01;;;;;;;8.50;7.70;;;24.40;91.10;;;;;;4938704;29;20661;-96
2023/08/18 08:31:31;;;;;;;7.70;7.03;;;24.40;91.20;;;;;;4937833;29;20461;-94
2023/08/18 08:34:04;;;;;;;7.60;7.00;;;24.20;91.10;;;;;;4937473;29;20533;-94
2023/08/18 08:36:33;;;;;;;7.20;6.60;;;24.40;91.10;;;;;;4937594;29;20987;-93
2023/08/18 08:39:00;;;;;;;7.30;6.63;;;24.40;91.10;;;;;;4936869;29;20465;-94
2023/08/18 08:41:28;;;;;;;7.30;6.67;;;24.30;91.10;;;;;;4937333;29;20473;-93
2023/08/18 08:43:56;;;;;;;8.57;7.77;;;24.40;91.10;;;;;;4937949;29;20837;-93
2023/08/18 08:46:23;;;;;;;8.10;7.40;;;24.40;91.10;;;;;;4937871;29;20454;-92
2023/08/18 08:48:55;;;;;;;6.70;6.13;;;24.40;91.10;;;;;;4937939;29;20457;-94
2023/08/18 08:51:27;;;;;;;7.13;6.53;;;24.40;91.10;;;;;;4937398;29;20541;-93
2023/08/18 08:54:00;;;;;;;7.43;6.83;;;24.40;91.10;;;;;;4937576;29;20460;-93
2023/08/18 08:57:02;;;;;;;8.13;7.40;;;24.40;91.10;;;;;;4937072;29;20984;-93
2023/08/18 08:59:29;;;;;;;6.83;6.33;;;24.40;91.10;;;;;;4936892;29;20453;-93
2023/08/18 09:01:56;;;;;;;9.60;8.00;;;24.40;91.10;;;;;;4936984;29;20461;-94
2023/08/18 09:04:24;;;;;;;7.90;7.30;;;24.40;91.10;;;;;;4936884;29;20446;-92
2023/08/18 09:06:51;;;;;;;7.07;6.47;;;24.40;91.10;;;;;;4936872;29;20445;-93
2023/08/18 09:09:19;;;;;;;7.40;6.80;;;24.40;91.10;;;;;;4936756;29;20914;-93
2023/08/18 09:11:46;;;;;;;6.93;6.33;;;24.50;91.10;;;;;;4936704;29;20524;-92
2023/08/18 09:14:13;;;;;;;7.00;6.47;;;24.50;91.10;;;;;;4936540;29;20928;-91
2023/08/18 09:16:41;;;;;;;7.30;6.70;;;24.50;91.10;;;;;;4936393;29;20452;-93
2023/08/18 09:19:12;;;;;;;6.50;6.00;;;24.50;91.10;;;;;;4936807;29;20461;-92
2023/08/18 09:21:39;;;;;;;7.43;6.80;;;24.50;91.10;;;;;;4936776;29;20777;-90
2023/08/18 09:24:06;;;;;;;7.23;6.63;;;24.50;91.10;;;;;;4936910;29;20537;-91
2023/08/18 09:26:35;;;;;;;6.47;5.90;;;24.50;91.30;;;;;;4942020;29;20450;-92
2023/08/18 09:29:02;;;;;;;7.80;7.20;;;24.50;91.10;;;;;;4959354;29;21035;-91
2023/08/18 09:31:30;;;;;;;7.13;6.53;;;24.50;91.10;;;;;;4954197;29;20952;-91
2023/08/18 09:33:58;;;;;;;6.60;6.10;;;24.50;91.10;;;;;;4940267;29;20491;-94
2023/08/18 09:37:05;;;;;;;6.33;5.83;;;24.50;91.00;;;;;;4940764;29;20555;-94
2023/08/18 09:43:44;;;;;;;6.40;5.90;;;24.50;91.00;;;;;;4955223;23;20526;-96
2023/08/18 09:46:20;;;;;;;6.70;6.17;;;24.50;91.10;;;;;;4940346;29;20434;-95
2023/08/18 09:48:48;;;;;;;5.93;5.53;;;24.50;91.10;;;;;;4943736;29;20541;-95
2023/08/18 09:51:23;;;;;;;7.40;6.80;;;24.50;91.10;;;;;;4941341;29;20454;-94
2023/08/18 09:53:57;;;;;;;7.07;6.47;;;24.50;91.10;;;;;;4946637;29;20442;-95
2023/08/18 09:56:28;;;;;;;6.40;5.90;;;24.50;91.10;;;;;;4941107;29;20855;-88
2023/08/18 09:59:09;;;;;;;7.40;6.80;;;24.50;91.10;;;;;;4939019;29;20452;-89
2023/08/18 10:01:38;;;;;;;6.53;6.03;;;24.60;91.10;;;;;;4937548;29;20453;-89
2023/08/18 10:04:07;;;;;;;6.43;6.00;;;24.50;91.10;;;;;;4938799;29;20472;-87
2023/08/18 10:06:36;;;;;;;5.90;5.40;;;24.60;91.20;;;;;;4939151;29;20449;-85
2023/08/18 10:09:03;;;;;;;7.03;6.43;;;24.60;91.20;;;;;;4938613;29;20561;-87
2023/08/18 10:11:30;;;;;;;11.30;7.07;;;24.60;91.10;;;;;;4938746;29;20532;-91
2023/08/18 10:13:58;;;;;;;6.40;5.90;;;24.60;91.10;;;;;;4938846;29;20469;-87
2023/08/18 10:16:25;;;;;;;7.23;6.60;;;24.60;91.20;;;;;;4936488;29;21030;-87
2023/08/18 10:18:57;;;;;;;10.97;10.00;;;24.60;91.20;;;;;;4937648;29;20459;-88
2023/08/18 10:21:24;;;;;;;13.07;11.83;;;24.60;92.40;;;;;;4933546;29;20531;-89
2023/08/18 10:23:52;;;;;;;12.90;11.63;;;24.60;92.70;;;;;;4919748;29;20955;-89
2023/08/18 10:26:23;;;;;;;15.23;13.63;;;24.60;92.60;;;;;;4920052;29;20442;-94
2023/08/18 10:28:50;;;;;;;13.70;12.47;;;24.60;92.50;;;;;;4936402;29;20545;-91
2023/08/18 10:31:17;;;;;;;14.00;12.50;;;24.60;93.00;;;;;;4939544;29;20515;-93
2023/08/18 10:33:49;;;;;;;15.03;13.63;;;24.60;92.90;;;;;;4940011;29;20983;-91
2023/08/18 10:36:24;;;;;;;15.93;14.37;;;24.60;93.50;;;;;;4940036;29;20481;-95
2023/08/18 10:38:54;;;;;;;16.70;13.20;;;24.60;93.60;;;;;;4939013;29;20875;-88
2023/08/18 10:41:25;;;;;;;15.03;13.67;;;24.60;93.90;;;;;;4938934;29;20954;-90
2023/08/18 10:43:56;;;;;;;14.20;13.00;;;24.70;93.50;;;;;;4938606;29;20457;-90
2023/08/18 10:46:25;;;;;;;12.50;11.20;;;24.70;92.90;;;;;;4923008;29;20951;-89
2023/08/18 10:48:52;;;;;;;12.77;11.67;;;24.60;92.80;;;;;;4936740;29;20447;-90
2023/08/18 10:51:21;;;;;;;14.30;12.13;;;24.70;93.30;;;;;;4937336;29;20545;-89
2023/08/18 10:53:50;;;;;;;14.80;13.50;;;24.70;93.00;;;;;;4938187;29;20454;-89
2023/08/18 10:56:17;;;;;;;13.37;11.97;;;24.70;93.10;;;;;;4938790;29;20586;-89
2023/08/18 10:58:44;;;;;;;11.90;10.90;;;24.80;93.00;;;;;;4933910;29;20532;-87
2023/08/18 11:01:11;;;;;;;13.00;11.90;;;24.80;93.00;;;;;;4924290;29;20479;-86
2023/08/18 11:03:40;;;;;;;12.93;11.83;;;24.80;93.10;;;;;;4922623;29;20531;-89
2023/08/18 11:06:08;;;;;;;12.90;11.80;;;24.80;93.10;;;;;;4926527;29;20527;-90
2023/08/18 11:08:37;;;;;;;13.90;12.60;;;24.80;93.20;;;;;;4934784;29;20455;-89
2023/08/18 11:11:10;;;;;;;13.73;12.50;;;24.80;93.30;;;;;;4931935;29;20541;-89
2023/08/18 11:13:37;;;;;;;13.80;12.60;;;24.80;93.30;;;;;;4919074;29;20450;-93
2023/08/18 11:16:14;;;;;;;13.90;12.70;;;24.80;93.40;;;;;;4926689;29;20490;-87
2023/08/18 11:18:42;;;;;;;14.00;12.70;;;24.80;93.40;;;;;;4939007;29;20512;-94
2023/08/18 11:21:09;;;;;;;13.47;12.13;;;24.80;93.50;;;;;;4920424;29;20446;-87
2023/08/18 11:23:38;;;;;;;14.23;13.07;;;24.80;93.50;;;;;;4922149;29;20448;-89
2023/08/18 11:26:05;;;;;;;14.40;13.00;;;24.70;93.30;;;;;;4919339;29;20862;-89
2023/08/18 11:28:55;;;;;;;14.60;13.30;;;24.90;93.40;;;;;;4920346;29;20448;-96
2023/08/18 11:37:46;;;;;;;13.20;12.10;;;24.80;92.90;;;;;;5546288;23;20496;-96
2023/08/18 11:40:18;;;;;;;13.10;11.80;;;24.80;92.90;;;;;;4924275;29;20510;-91
2023/08/18 11:45:28;;;;;;;12.67;11.67;;;24.80;93.00;;;;;;4910579;29;20523;-95
2023/08/18 11:48:00;;;;;;;12.07;11.07;;;24.80;93.20;;;;;;4913973;29;20478;-91
2023/08/18 11:50:42;;;;;;;13.07;11.90;;;24.80;93.30;;;;;;4941764;29;20437;-96
2023/08/18 11:53:14;;;;;;;11.27;10.27;;;24.90;93.40;;;;;;4961319;23;20492;-96
2023/08/18 11:55:44;;;;;;;11.20;10.00;;;25.00;93.40;;;;;;4970486;29;20484;-93
2023/08/18 11:58:14;;;;;;;11.70;10.60;;;24.90;93.30;;;;;;4942946;29;20460;-89
2023/08/18 12:00:43;;;;;;;12.17;10.97;;;24.90;93.30;;;;;;4958640;29;20443;-92
2023/08/18 12:03:21;;;;;;;11.80;10.90;;;24.90;93.40;;;;;;4931996;29;20505;-90
2023/08/18 12:05:48;;;;;;;26.30;10.90;;;25.00;93.60;;;;;;4958204;29;20442;-88
2023/08/18 12:08:15;;;;;;;11.10;10.10;;;25.00;93.60;;;;;;4943692;29;20446;-89
2023/08/18 12:10:44;;;;;;;10.43;9.50;;;25.00;93.90;;;;;;4942632;29;20541;-93
2023/08/18 12:13:12;;;;;;;10.47;9.37;;;25.00;94.00;;;;;;4938315;29;20476;-92
2023/08/18 12:22:55;;;;;;;8.93;8.23;;;25.00;93.20;;;;;;4957673;29;20401;-96
2023/08/18 12:25:30;;;;;;;8.70;8.00;;;24.80;93.00;;;;;;4949197;29;20452;-95
2023/08/18 12:27:59;;;;;;;10.63;9.43;;;24.90;93.00;;;;;;4957848;29;20453;-93
2023/08/18 12:30:29;;;;;;;10.50;9.40;;;24.90;93.10;;;;;;4963274;23;21059;-90
2023/08/18 12:32:55;;;;;;;8.30;7.60;;;24.90;93.10;;;;;;4955966;29;20435;-91
2023/08/18 12:35:22;;;;;;;9.63;8.83;;;24.90;93.00;;;;;;4945202;29;20549;-93
2023/08/18 12:37:52;;;;;;;9.30;8.40;;;24.90;92.90;;;;;;4936773;29;20453;-93
2023/08/18 12:40:33;;;;;;;7.90;7.30;;;24.90;92.90;;;;;;4937210;29;20534;-94
2023/08/18 12:43:02;;;;;;;8.10;7.50;;;24.90;92.80;;;;;;4937626;29;20569;-94
2023/08/18 12:45:29;;;;;;;8.00;7.40;;;24.90;92.80;;;;;;4937348;29;20470;-90
2023/08/18 12:47:56;;;;;;;8.07;7.47;;;24.90;92.80;;;;;;4936501;29;20813;-94
2023/08/18 12:50:48;;;;;;;8.63;7.80;;;24.90;92.70;;;;;;4937240;29;20450;-95
2023/08/18 12:53:25;;;;;;;8.67;7.83;;;24.90;92.80;;;;;;4926092;29;20462;-94
2023/08/18 12:55:51;;;;;;;7.70;7.10;;;24.90;92.80;;;;;;4937361;29;21013;-93
2023/08/18 12:58:20;;;;;;;8.67;7.97;;;24.90;92.70;;;;;;4936081;29;20854;-92
2023/08/18 13:00:49;;;;;;;8.60;7.90;;;24.90;92.70;;;;;;4937021;29;20542;-95
2023/08/18 13:03:18;;;;;;;7.60;7.00;;;24.90;92.70;;;;;;4936835;29;20510;-93
2023/08/18 13:05:45;;;;;;;8.23;7.53;;;24.90;92.70;;;;;;4948710;29;20544;-93
2023/08/18 13:08:15;;;;;;;7.50;6.83;;;24.90;92.70;;;;;;4937695;29;20561;-94
2023/08/18 13:10:42;;;;;;;8.10;7.50;;;24.80;92.60;;;;;;4936533;29;20860;-92
2023/08/18 13:13:09;;;;;;;8.47;7.77;;;24.90;92.70;;;;;;4935872;29;21063;-92
2023/08/18 13:15:37;;;;;;;6.40;5.90;;;24.90;92.60;;;;;;4936533;29;20538;-92
2023/08/18 13:37:24;;;;;;;6.47;5.97;;;24.90;92.80;;;;;;4847067;29;20525;-92
2023/08/18 13:39:51;;;;;;;6.80;6.20;;;25.00;92.90;;;;;;4898591;29;20535;-91
2023/08/18 13:42:17;;;;;;;7.63;7.07;;;24.90;92.90;;;;;;4898222;29;20475;-91
2023/08/18 13:44:45;;;;;;;12.30;7.00;;;24.90;92.90;;;;;;4899640;29;20460;-90
2023/08/18 13:47:11;;;;;;;7.30;6.63;;;25.00;93.10;;;;;;4899757;29;20486;-92
2023/08/18 13:49:38;;;;;;;7.63;7.03;;;25.00;93.10;;;;;;4899007;29;20460;-91
2023/08/18 13:54:35;;;;;;;7.07;6.37;;;25.00;93.10;;;;;;4951319;23;20540;-90
2023/08/18 13:57:01;;;;;;;6.83;6.27;;;25.00;93.10;;;;;;4939025;29;20580;-91
2023/08/18 13:59:27;;;;;;;7.23;6.63;;;25.00;93.10;;;;;;4936348;29;20500;-89
2023/08/18 14:02:07;;;;;;;6.60;6.10;;;25.00;93.20;;;;;;4937924;29;20199;-94
2023/08/18 14:04:35;;;;;;;6.67;6.07;;;25.00;93.30;;;;;;4926299;29;20451;-91
2023/08/18 14:07:02;;;;;;;7.47;6.97;;;25.00;93.30;;;;;;4916881;29;20443;-90
2023/08/18 14:09:29;;;;;;;6.27;5.77;;;25.10;93.30;;;;;;4916706;29;20634;-89
2023/08/18 14:12:00;;;;;;;7.67;6.97;;;25.10;93.20;;;;;;4908154;29;20475;-89
2023/08/18 14:14:27;;;;;;;7.93;7.13;;;25.20;93.30;;;;;;4902151;29;20456;-90
2023/08/18 14:16:55;;;;;;;6.70;6.00;;;25.10;93.20;;;;;;4918150;29;20971;-94
2023/08/18 14:19:22;;;;;;;5.90;5.50;;;25.20;93.30;;;;;;4922277;29;20771;-94
2023/08/18 14:21:57;;;;;;;7.10;6.50;;;25.20;93.30;;;;;;4920163;29;20510;-93
2023/08/18 14:24:24;;;;;;;7.43;6.80;;;25.20;93.20;;;;;;4921518;29;20507;-93
2023/08/18 14:26:51;;;;;;;7.10;6.50;;;25.20;93.20;;;;;;4921775;29;20450;-92
2023/08/18 14:29:22;;;;;;;6.13;5.63;;;25.20;93.10;;;;;;4921284;29;20475;-93
2023/08/18 14:31:49;;;;;;;6.77;6.20;;;25.20;93.10;;;;;;4916991;29;20523;-93
2023/08/18 14:34:16;;;;;;;6.33;5.83;;;25.20;93.10;;;;;;4922344;29;20463;-91
2023/08/18 14:36:43;;;;;;;7.63;6.37;;;25.30;93.30;;;;;;4908444;29;20476;-93
2023/08/18 14:39:10;;;;;;;7.70;7.10;;;25.30;93.30;;;;;;4902666;29;20452;-90
2023/08/18 14:41:38;;;;;;;6.13;5.73;;;25.30;93.20;;;;;;4919394;29;20467;-92
2023/08/18 14:44:05;;;;;;;8.50;5.57;;;25.30;93.20;;;;;;4921705;29;20995;-93
2023/08/18 14:46:33;;;;;;;5.60;5.20;;;25.30;93.20;;;;;;4908156;29;20448;-94
2023/08/18 14:49:03;;;;;;;6.10;5.60;;;25.30;93.10;;;;;;4904934;29;20464;-93
2023/08/18 14:51:38;;;;;;;7.03;6.23;;;25.30;93.10;;;;;;4910970;29;20463;-92
2023/08/18 14:54:05;;;;;;;7.67;5.90;;;25.40;93.30;;;;;;4906721;29;20489;-91
2023/08/18 14:56:32;;;;;;;5.93;5.53;;;25.40;93.30;;;;;;4902157;29;20479;-91
2023/08/18 14:58:59;;;;;;;6.77;6.27;;;25.40;93.30;;;;;;4907733;29;20474;-92
2023/08/18 15:01:40;;;;;;;6.33;5.80;;;25.40;93.40;;;;;;4928997;29;20452;-92
2023/08/18 15:04:07;;;;;;;7.80;5.70;;;25.40;93.40;;;;;;4930357;29;20801;-92
2023/08/18 15:06:35;;;;;;;6.10;5.70;;;25.40;93.40;;;;;;4926274;29;20538;-93
2023/08/18 15:09:03;;;;;;;7.00;6.50;;;25.40;93.40;;;;;;4924390;29;20450;-93
2023/08/18 15:11:32;;;;;;;5.33;4.93;;;25.40;93.40;;;;;;4921962;29;20610;-92
2023/08/18 15:13:59;;;;;;;5.60;5.20;;;25.40;93.40;;;;;;4923978;29;20447;-89
2023/08/18 15:16:26;;;;;;;5.90;5.50;;;25.40;93.40;;;;;;4918903;29;20483;-89
2023/08/18 15:18:54;;;;;;;6.43;5.97;;;25.40;93.40;;;;;;4918777;29;20935;-89
2023/08/18 15:21:20;;;;;;;7.00;6.40;;;25.40;93.40;;;;;;4910821;29;20562;-90
2023/08/18 15:23:47;;;;;;;5.20;4.90;;;25.40;93.40;;;;;;4900328;29;20449;-90
2023/08/18 15:26:14;;;;;;;5.60;5.10;;;25.50;93.80;;;;;;4901683;29;20448;-90
2023/08/18 15:28:41;;;;;;;5.73;5.23;;;25.50;93.50;;;;;;4902001;29;20902;-90
2023/08/18 15:31:12;;;;;;;5.77;5.10;;;25.50;93.40;;;;;;4899948;29;20445;-91
2023/08/18 15:33:38;;;;;;;6.70;6.20;;;25.50;93.40;;;;;;4900102;29;20448;-91
2023/08/18 15:36:07;;;;;;;6.20;5.80;;;25.50;93.40;;;;;;4900429;29;20825;-91
2023/08/18 15:38:34;;;;;;;7.00;6.50;;;25.50;93.60;;;;;;4899798;29;20474;-90
2023/08/18 15:41:00;;;;;;;7.57;7.07;;;25.40;93.80;;;;;;4899886;29;20559;-90
2023/08/18 15:43:27;;;;;;;7.70;7.00;;;25.40;94.00;;;;;;4899782;29;20456;-93
2023/08/18 15:45:54;;;;;;;8.27;7.57;;;25.50;94.10;;;;;;4900122;29;20456;-90
2023/08/18 15:48:21;;;;;;;7.70;7.20;;;25.50;94.30;;;;;;4911783;29;20455;-91
2023/08/18 15:50:48;;;;;;;8.00;7.30;;;25.50;94.40;;;;;;4918494;29;20448;-90
2023/08/18 15:53:18;;;;;;;7.77;7.20;;;25.50;94.40;;;;;;4918485;29;20492;-90
2023/08/18 15:55:45;;;;;;;7.60;7.00;;;25.50;94.30;;;;;;4918763;29;20447;-90
2023/08/18 15:58:12;;;;;;;7.67;7.10;;;25.50;94.30;;;;;;4914219;29;20485;-86
2023/08/18 16:00:40;;;;;;;6.33;5.90;;;25.50;94.20;;;;;;4930571;29;20458;-87
2023/08/18 16:03:07;;;;;;;6.33;5.83;;;25.50;93.60;;;;;;4901068;29;20448;-87
2023/08/18 16:05:34;;;;;;;5.50;5.10;;;25.40;93.30;;;;;;4899877;29;20519;-87
2023/08/18 16:08:01;;;;;;;5.80;5.40;;;25.40;93.20;;;;;;4912552;29;20456;-87
2023/08/18 16:10:29;;;;;;;5.70;5.30;;;25.40;93.20;;;;;;4911465;29;20534;-86
2023/08/18 16:12:57;;;;;;;5.63;5.23;;;25.50;93.30;;;;;;4917120;29;20442;-86
2023/08/18 16:15:24;;;;;;;6.80;5.70;;;25.30;93.30;;;;;;4908726;29;20447;-86
2023/08/18 16:17:51;;;;;;;6.07;5.67;;;25.30;93.30;;;;;;4916584;29;20501;-85
2023/08/18 16:20:18;;;;;;;5.57;5.17;;;25.30;93.30;;;;;;4913557;29;20803;-86
2023/08/18 16:22:45;;;;;;;5.80;5.40;;;25.30;93.40;;;;;;4916366;29;20463;-86
2023/08/18 16:25:12;;;;;;;5.30;5.00;;;25.30;93.30;;;;;;4915984;29;20477;-86
2023/08/18 16:27:40;;;;;;;5.53;5.13;;;25.30;93.30;;;;;;4917183;29;20444;-87
2023/08/18 16:30:08;;;;;;;6.00;5.60;;;25.30;93.50;;;;;;4915649;29;20448;-86
2023/08/18 16:32:34;;;;;;;6.00;5.60;;;25.30;93.40;;;;;;4917097;29;20444;-86
2023/08/18 16:35:01;;;;;;;6.10;5.70;;;25.20;93.40;;;;;;4917787;29;20455;-87
2023/08/18 16:37:28;;;;;;;6.20;5.70;;;25.20;93.40;;;;;;4899786;29;20574;-86
2023/08/18 16:39:57;;;;;;;5.50;5.10;;;25.20;93.40;;;;;;4906749;29;20451;-86
2023/08/18 16:42:24;;;;;;;6.23;5.73;;;25.20;93.40;;;;;;4909619;29;20481;-87
2023/08/18 16:44:52;;;;;;;5.57;5.17;;;25.20;93.50;;;;;;4914197;29;21286;-87
2023/08/18 16:47:19;;;;;;;6.13;5.73;;;25.20;93.40;;;;;;4903745;29;20543;-87
2023/08/18 16:49:46;;;;;;;6.03;5.30;;;25.20;93.40;;;;;;4896714;29;20440;-87
2023/08/18 16:52:13;;;;;;;7.00;6.30;;;25.20;93.40;;;;;;4897469;29;20445;-87
2023/08/18 16:54:39;;;;;;;6.03;5.53;;;25.20;93.40;;;;;;4880034;29;20479;-87
2023/08/18 16:57:06;;;;;;;6.60;5.73;;;25.20;93.40;;;;;;4879724;29;20487;-87
2023/08/18 16:59:33;;;;;;;6.47;5.97;;;25.20;93.40;;;;;;4878562;29;20530;-87
2023/08/18 17:02:02;;;;;;;6.20;5.50;;;25.20;93.40;;;;;;4877360;29;21028;-87
2023/08/18 17:04:32;;;;;;;6.33;5.83;;;25.30;93.40;;;;;;4877194;29;20457;-87
2023/08/18 17:06:59;;;;;;;4.80;4.50;;;25.20;93.40;;;;;;4877343;29;20464;-88
2023/08/18 17:09:26;;;;;;;5.70;5.20;;;25.20;93.40;;;;;;4877679;29;20536;-87
2023/08/18 17:11:53;;;;;;;5.93;5.53;;;25.20;93.40;;;;;;4877677;29;20563;-87
2023/08/18 17:14:20;;;;;;;5.83;5.43;;;25.20;93.30;;;;;;4877841;29;20459;-87
2023/08/18 17:16:47;;;;;;;5.80;5.40;;;25.20;93.40;;;;;;4877517;29;20451;-87
2023/08/18 17:19:15;;;;;;;4.80;4.50;;;25.20;93.40;;;;;;4878848;29;20449;-87
2023/08/18 17:21:41;;;;;;;5.50;5.00;;;25.20;93.30;;;;;;4879299;29;20806;-87
2023/08/18 17:24:09;;;;;;;5.13;4.73;;;25.20;93.30;;;;;;4879198;29;20448;-87
2023/08/18 17:26:38;;;;;;;5.30;4.90;;;25.20;93.30;;;;;;4879225;29;20487;-87
2023/08/18 17:29:05;;;;;;;5.63;5.17;;;25.20;93.30;;;;;;4879322;29;20536;-87
2023/08/18 17:31:33;;;;;;;5.50;5.10;;;25.20;93.30;;;;;;4879769;29;20884;-87
2023/08/18 17:34:00;;;;;;;9.73;5.13;;;25.10;93.30;;;;;;4879282;29;20444;-87
2023/08/18 17:36:28;;;;;;;5.70;5.40;;;25.20;93.30;;;;;;4879420;29;20451;-87
2023/08/18 17:38:55;;;;;;;5.87;5.37;;;25.20;93.30;;;;;;4879215;29;20585;-87
2023/08/18 17:41:21;;;;;;;5.70;5.30;;;25.10;93.20;;;;;;4879250;29;20475;-87
2023/08/18 17:43:48;;;;;;;5.50;5.00;;;25.20;93.30;;;;;;4893608;29;20465;-87
2023/08/18 17:46:15;;;;;;;5.70;5.20;;;25.20;93.30;;;;;;4900363;29;20801;-87
2023/08/18 17:48:42;;;;;;;5.20;4.90;;;25.20;93.30;;;;;;4900029;29;20463;-87
2023/08/18 17:51:09;;;;;;;5.30;4.90;;;25.20;93.30;;;;;;4901119;29;20452;-87
2023/08/18 17:53:37;;;;;;;4.83;4.53;;;25.20;93.30;;;;;;4899526;29;20484;-90
2023/08/18 17:56:04;;;;;;;5.10;4.77;;;25.20;93.30;;;;;;4901294;29;20547;-90
2023/08/18 17:58:30;;;;;;;5.70;5.20;;;25.20;93.20;;;;;;4899996;29;20491;-90
2023/08/18 18:00:59;;;;;;;4.63;4.07;;;25.20;93.30;;;;;;4900348;29;20453;-90
2023/08/18 18:03:27;;;;;;;5.30;5.00;;;25.20;93.30;;;;;;4900023;29;20447;-89
2023/08/18 18:05:53;;;;;;;4.90;4.60;;;25.20;93.30;;;;;;4899835;29;20944;-89
2023/08/18 18:08:21;;;;;;;5.67;5.30;;;25.10;93.30;;;;;;4899901;29;20457;-90
2023/08/18 18:10:50;;;;;;;5.20;4.80;;;25.10;93.30;;;;;;4899632;29;20475;-90
2023/08/18 18:13:17;;;;;;;4.83;4.43;;;25.20;93.30;;;;;;4899865;29;20544;-90
2023/08/18 18:15:44;;;;;;;4.60;4.30;;;25.10;93.20;;;;;;4899618;29;20466;-90
2023/08/18 18:18:11;;;;;;;5.40;5.00;;;25.10;93.60;;;;;;4898983;29;20587;-89
2023/08/18 18:20:38;;;;;;;5.17;4.87;;;25.10;93.30;;;;;;4898986;29;20536;-89
2023/08/18 18:23:05;;;;;;;4.90;4.60;;;25.20;93.30;;;;;;4899002;29;20444;-89
2023/08/18 18:25:31;;;;;;;5.80;5.13;;;25.20;93.30;;;;;;4899035;29;20454;-90
2023/08/18 18:28:01;;;;;;;6.80;6.20;;;25.20;93.30;;;;;;4898948;29;20463;-89
2023/08/18 18:30:28;;;;;;;5.37;5.07;;;25.30;93.30;;;;;;4898857;29;20472;-89
2023/08/18 18:32:54;;;;;;;4.90;4.50;;;25.20;93.20;;;;;;4900362;29;20519;-89
2023/08/18 18:35:23;;;;;;;4.77;4.40;;;25.20;93.20;;;;;;4912436;29;20970;-89
2023/08/18 18:37:50;;;;;;;5.07;4.77;;;25.20;93.20;;;;;;4918378;29;20498;-89
2023/08/18 18:40:19;;;;;;;4.43;4.13;;;25.20;93.20;;;;;;4918797;29;20784;-89
2023/08/18 18:42:47;;;;;;;4.13;3.93;;;25.20;93.20;;;;;;4919025;29;20443;-89
2023/08/18 18:45:16;;;;;;;5.00;4.70;;;25.20;93.20;;;;;;4918898;29;20547;-89
2023/08/18 18:47:44;;;;;;;4.60;4.30;;;25.20;93.20;;;;;;4919230;29;20844;-89
2023/08/18 18:50:11;;;;;;;4.90;4.60;;;25.20;93.20;;;;;;4918675;29;20461;-89
2023/08/18 18:52:38;;;;;;;4.70;4.30;;;25.20;93.30;;;;;;4918917;29;20531;-89
2023/08/18 18:55:06;;;;;;;5.00;4.70;;;25.20;93.30;;;;;;4919551;29;20456;-89
2023/08/18 18:57:33;;;;;;;5.00;4.60;;;25.10;93.20;;;;;;4916791;29;20494;-89
2023/08/18 19:00:00;;;;;;;4.70;4.30;;;25.20;93.20;;;;;;4917104;29;20459;-89
2023/08/18 19:02:31;;;;;;;4.73;4.43;;;25.20;93.20;;;;;;4917226;29;20466;-89
2023/08/18 19:04:58;;;;;;;5.47;5.07;;;25.20;93.20;;;;;;4917334;29;20542;-89
2023/08/18 19:07:24;;;;;;;4.40;4.10;;;25.20;93.20;;;;;;4917199;29;20534;-89
2023/08/18 19:09:51;;;;;;;4.77;4.47;;;25.20;93.20;;;;;;4917127;29;20546;-89
2023/08/18 19:12:18;;;;;;;4.17;3.87;;;25.20;93.20;;;;;;4917558;29;20990;-89
2023/08/18 19:14:45;;;;;;;4.60;4.30;;;25.10;93.20;;;;;;4918881;29;20815;-89
2023/08/18 19:17:12;;;;;;;4.30;4.10;;;25.10;93.20;;;;;;4918850;29;20802;-89
2023/08/18 19:19:40;;;;;;;4.60;4.30;;;25.20;93.30;;;;;;4918802;29;20436;-89
2023/08/18 19:22:07;;;;;;;4.93;4.63;;;25.20;93.20;;;;;;4918937;29;20542;-89
2023/08/18 19:24:36;;;;;;;4.77;4.47;;;25.20;93.20;;;;;;4918652;29;20477;-89
2023/08/18 19:27:03;;;;;;;5.30;5.00;;;25.20;93.20;;;;;;4918654;29;20443;-89
2023/08/18 19:29:29;;;;;;;4.70;4.30;;;25.10;93.20;;;;;;4918829;29;20448;-89
2023/08/18 19:31:56;;;;;;;4.53;4.27;;;25.20;93.20;;;;;;4918592;29;20451;-89
2023/08/18 19:34:23;;;;;;;4.60;4.20;;;25.20;93.20;;;;;;4918654;29;21036;-89
2023/08/18 19:36:51;;;;;;;5.00;4.70;;;25.20;93.20;;;;;;4918275;29;20923;-89
2023/08/18 19:39:18;;;;;;;5.03;4.63;;;25.10;93.10;;;;;;4918495;29;20819;-89